sensor_id;sensor_type;location;lat;lon;timestamp;pressure;altitude;pressure_sealevel;temperature;humidity
74722;BME280;63470;49.826;6.740;2023-03-20T00:01:28;100464.72;;;11.01;60.12
74722;BME280;63470;49.826;6.740;2023-03-20T00:03:50;100465.32;;;10.98;60.14
74722;BME280;63470;49.826;6.740;2023-03-20T00:06:23;100459.32;;;10.95;60.20
74722;BME280;63470;49.826;6.740;2023-03-20T00:08:50;100460.50;;;10.94;60.21
74722;BME280;63470;49.826;6.740;2023-03-20T00:11:27;100457.67;;;10.89;60.26
74722;BME280;63470;49.826;6.740;2023-03-20T00:13:50;100456.45;;;10.82;60.30
74722;BME280;63470;49.826;6.740;2023-03-20T00:16:23;100461.57;;;10.75;60.40
74722;BME280;63470;49.826;6.740;2023-03-20T00:18:53;100460.85;;;10.68;60.45
74722;BME280;63470;49.826;6.740;2023-03-20T00:21:21;100464.73;;;10.62;60.54
74722;BME280;63470;49.826;6.740;2023-03-20T00:23:53;100470.00;;;10.55;60.64
74722;BME280;63470;49.826;6.740;2023-03-20T00:26:27;100465.84;;;10.51;60.77
74722;BME280;63470;49.826;6.740;2023-03-20T00:28:54;100461.73;;;10.49;60.78
74722;BME280;63470;49.826;6.740;2023-03-20T00:31:34;100466.74;;;10.51;60.65
74722;BME280;63470;49.826;6.740;2023-03-20T00:34:09;100468.70;;;10.53;60.58
74722;BME280;63470;49.826;6.740;2023-03-20T00:36:30;100473.48;;;10.54;60.55
74722;BME280;63470;49.826;6.740;2023-03-20T00:39:02;100480.50;;;10.54;60.57
74722;BME280;63470;49.826;6.740;2023-03-20T00:41:43;100478.94;;;10.54;60.57
74722;BME280;63470;49.826;6.740;2023-03-20T00:46:28;100485.79;;;10.58;60.46
74722;BME280;63470;49.826;6.740;2023-03-20T00:48:57;100489.05;;;10.64;60.36
74722;BME280;63470;49.826;6.740;2023-03-20T00:51:28;100490.89;;;10.67;60.30
74722;BME280;63470;49.826;6.740;2023-03-20T00:53:58;100498.88;;;10.70;60.28
74722;BME280;63470;49.826;6.740;2023-03-20T00:56:31;100497.53;;;10.72;60.25
74722;BME280;63470;49.826;6.740;2023-03-20T00:59:00;100503.09;;;10.76;60.19
74722;BME280;63470;49.826;6.740;2023-03-20T01:01:30;100507.09;;;10.80;60.19
74722;BME280;63470;49.826;6.740;2023-03-20T01:04:00;100511.73;;;10.83;60.16
74722;BME280;63470;49.826;6.740;2023-03-20T01:06:36;100517.24;;;10.85;60.18
74722;BME280;63470;49.826;6.740;2023-03-20T01:09:08;100517.96;;;10.87;60.19
74722;BME280;63470;49.826;6.740;2023-03-20T01:11:37;100523.97;;;10.90;60.15
74722;BME280;63470;49.826;6.740;2023-03-20T01:14:03;100531.37;;;10.91;60.15
74722;BME280;63470;49.826;6.740;2023-03-20T01:16:38;100530.30;;;10.92;60.23
74722;BME280;63470;49.826;6.740;2023-03-20T01:19:03;100529.86;;;10.93;60.22
74722;BME280;63470;49.826;6.740;2023-03-20T01:21:36;100535.31;;;10.93;60.22
74722;BME280;63470;49.826;6.740;2023-03-20T01:24:10;100532.99;;;10.93;60.20
74722;BME280;63470;49.826;6.740;2023-03-20T01:26:42;100538.47;;;10.92;60.20
74722;BME280;63470;49.826;6.740;2023-03-20T01:29:23;100544.50;;;10.91;60.24
74722;BME280;63470;49.826;6.740;2023-03-20T01:31:42;100546.42;;;10.90;60.29
74722;BME280;63470;49.826;6.740;2023-03-20T01:34:12;100551.02;;;10.91;60.33
74722;BME280;63470;49.826;6.740;2023-03-20T01:36:50;100547.22;;;10.91;60.35
74722;BME280;63470;49.826;6.740;2023-03-20T01:39:09;100548.13;;;10.92;60.31
74722;BME280;63470;49.826;6.740;2023-03-20T01:41:40;100549.92;;;10.93;60.29
74722;BME280;63470;49.826;6.740;2023-03-20T01:44:20;100551.57;;;10.93;60.28
74722;BME280;63470;49.826;6.740;2023-03-20T01:46:41;100549.62;;;10.92;60.25
74722;BME280;63470;49.826;6.740;2023-03-20T01:51:41;100553.72;;;10.93;60.16
74722;BME280;63470;49.826;6.740;2023-03-20T01:54:18;100558.28;;;10.91;60.24
74722;BME280;63470;49.826;6.740;2023-03-20T01:56:58;100555.75;;;10.90;60.29
74722;BME280;63470;49.826;6.740;2023-03-20T01:59:20;100557.48;;;10.89;60.35
74722;BME280;63470;49.826;6.740;2023-03-20T02:01:49;100559.05;;;10.90;60.36
74722;BME280;63470;49.826;6.740;2023-03-20T02:04:19;100554.07;;;10.91;60.27
74722;BME280;63470;49.826;6.740;2023-03-20T02:06:45;100552.80;;;10.88;60.24
74722;BME280;63470;49.826;6.740;2023-03-20T02:09:15;100550.68;;;10.86;60.23
74722;BME280;63470;49.826;6.740;2023-03-20T02:11:46;100539.56;;;10.84;60.25
74722;BME280;63470;49.826;6.740;2023-03-20T02:14:16;100537.33;;;10.84;60.24
74722;BME280;63470;49.826;6.740;2023-03-20T02:16:46;100531.69;;;10.85;60.32
74722;BME280;63470;49.826;6.740;2023-03-20T02:19:28;100528.97;;;10.86;60.46
74722;BME280;63470;49.826;6.740;2023-03-20T02:24:48;100520.16;;;10.89;60.49
74722;BME280;63470;49.826;6.740;2023-03-20T02:26:56;100515.93;;;10.91;60.42
74722;BME280;63470;49.826;6.740;2023-03-20T02:32:10;100507.20;;;10.89;60.33
74722;BME280;63470;49.826;6.740;2023-03-20T02:39:39;100503.28;;;10.79;60.55
74722;BME280;63470;49.826;6.740;2023-03-20T02:41:58;100501.94;;;10.76;60.59
74722;BME280;63470;49.826;6.740;2023-03-20T02:44:36;100505.09;;;10.74;60.68
74722;BME280;63470;49.826;6.740;2023-03-20T02:49:35;100521.36;;;10.73;60.78
74722;BME280;63470;49.826;6.740;2023-03-20T02:59:42;100541.34;;;10.79;60.73
74722;BME280;63470;49.826;6.740;2023-03-20T03:02:04;100537.38;;;10.80;60.69
74722;BME280;63470;49.826;6.740;2023-03-20T03:04:29;100534.23;;;10.79;60.64
74722;BME280;63470;49.826;6.740;2023-03-20T03:07:02;100528.33;;;10.78;60.55
74722;BME280;63470;49.826;6.740;2023-03-20T03:09:35;100522.16;;;10.75;60.50
74722;BME280;63470;49.826;6.740;2023-03-20T03:12:22;100520.39;;;10.71;60.52
74722;BME280;63470;49.826;6.740;2023-03-20T03:14:45;100516.58;;;10.66;60.63
74722;BME280;63470;49.826;6.740;2023-03-20T03:16:59;100519.62;;;10.59;60.79
74722;BME280;63470;49.826;6.740;2023-03-20T03:19:28;100524.73;;;10.53;60.93
74722;BME280;63470;49.826;6.740;2023-03-20T03:21:57;100527.94;;;10.52;60.98
74722;BME280;63470;49.826;6.740;2023-03-20T03:24:31;100528.36;;;10.54;60.93
74722;BME280;63470;49.826;6.740;2023-03-20T03:27:01;100532.98;;;10.54;60.92
74722;BME280;63470;49.826;6.740;2023-03-20T03:29:32;100535.76;;;10.55;60.93
74722;BME280;63470;49.826;6.740;2023-03-20T03:32:04;100539.55;;;10.55;60.91
74722;BME280;63470;49.826;6.740;2023-03-20T03:34:34;100540.44;;;10.56;60.86
74722;BME280;63470;49.826;6.740;2023-03-20T03:37:20;100552.58;;;10.58;60.83
74722;BME280;63470;49.826;6.740;2023-03-20T03:39:48;100547.52;;;10.58;60.77
74722;BME280;63470;49.826;6.740;2023-03-20T03:47:13;100532.08;;;10.59;60.66
74722;BME280;63470;49.826;6.740;2023-03-20T03:49:43;100537.78;;;10.60;60.61
74722;BME280;63470;49.826;6.740;2023-03-20T03:52:08;100533.73;;;10.59;60.63
74722;BME280;63470;49.826;6.740;2023-03-20T03:54:44;100535.73;;;10.58;60.63
74722;BME280;63470;49.826;6.740;2023-03-20T03:57:06;100522.38;;;10.58;60.70
74722;BME280;63470;49.826;6.740;2023-03-20T03:59:42;100525.41;;;10.60;60.66
74722;BME280;63470;49.826;6.740;2023-03-20T04:02:07;100526.30;;;10.59;60.67
74722;BME280;63470;49.826;6.740;2023-03-20T04:04:39;100527.62;;;10.59;60.61
74722;BME280;63470;49.826;6.740;2023-03-20T04:07:06;100523.80;;;10.56;60.60
74722;BME280;63470;49.826;6.740;2023-03-20T04:09:37;100521.17;;;10.52;60.67
74722;BME280;63470;49.826;6.740;2023-03-20T04:12:34;100532.91;;;10.46;60.80
74722;BME280;63470;49.826;6.740;2023-03-20T04:14:37;100534.92;;;10.42;60.83
74722;BME280;63470;49.826;6.740;2023-03-20T04:17:07;100531.64;;;10.39;60.83
74722;BME280;63470;49.826;6.740;2023-03-20T04:19:43;100539.62;;;10.33;60.82
74722;BME280;63470;49.826;6.740;2023-03-20T04:22:11;100536.04;;;10.30;60.92
74722;BME280;63470;49.826;6.740;2023-03-20T04:24:44;100539.81;;;10.31;60.91
74722;BME280;63470;49.826;6.740;2023-03-20T04:27:15;100542.87;;;10.32;60.89
74722;BME280;63470;49.826;6.740;2023-03-20T04:29:40;100549.52;;;10.33;60.87
74722;BME280;63470;49.826;6.740;2023-03-20T04:32:16;100556.70;;;10.33;60.79
74722;BME280;63470;49.826;6.740;2023-03-20T04:34:45;100565.38;;;10.32;60.79
74722;BME280;63470;49.826;6.740;2023-03-20T04:37:15;100571.56;;;10.31;60.79
74722;BME280;63470;49.826;6.740;2023-03-20T04:39:43;100585.09;;;10.31;60.73
74722;BME280;63470;49.826;6.740;2023-03-20T04:42:13;100590.97;;;10.30;60.71
74722;BME280;63470;49.826;6.740;2023-03-20T04:44:43;100596.91;;;10.29;60.73
74722;BME280;63470;49.826;6.740;2023-03-20T04:47:13;100594.26;;;10.28;60.69
74722;BME280;63470;49.826;6.740;2023-03-20T04:49:44;100601.95;;;10.27;60.71
74722;BME280;63470;49.826;6.740;2023-03-20T04:52:14;100600.23;;;10.28;60.71
74722;BME280;63470;49.826;6.740;2023-03-20T04:54:45;100598.49;;;10.27;60.71
74722;BME280;63470;49.826;6.740;2023-03-20T04:57:16;100595.17;;;10.28;60.70
74722;BME280;63470;49.826;6.740;2023-03-20T04:59:51;100591.55;;;10.29;60.71
74722;BME280;63470;49.826;6.740;2023-03-20T05:02:17;100577.61;;;10.30;60.60
74722;BME280;63470;49.826;6.740;2023-03-20T05:04:52;100578.02;;;10.29;60.62
74722;BME280;63470;49.826;6.740;2023-03-20T05:07:17;100580.24;;;10.29;60.62
74722;BME280;63470;49.826;6.740;2023-03-20T05:09:48;100582.22;;;10.29;60.62
74722;BME280;63470;49.826;6.740;2023-03-20T05:12:18;100581.01;;;10.28;60.65
74722;BME280;63470;49.826;6.740;2023-03-20T05:14:49;100581.83;;;10.27;60.64
74722;BME280;63470;49.826;6.740;2023-03-20T05:17:20;100581.69;;;10.25;60.65
74722;BME280;63470;49.826;6.740;2023-03-20T05:19:49;100573.70;;;10.23;60.67
74722;BME280;63470;49.826;6.740;2023-03-20T05:22:20;100575.96;;;10.19;60.70
74722;BME280;63470;49.826;6.740;2023-03-20T05:24:51;100577.64;;;10.14;60.75
74722;BME280;63470;49.826;6.740;2023-03-20T05:27:21;100580.56;;;10.09;60.80
74722;BME280;63470;49.826;6.740;2023-03-20T05:29:52;100584.22;;;10.05;60.89
74722;BME280;63470;49.826;6.740;2023-03-20T05:32:22;100584.41;;;10.01;60.95
74722;BME280;63470;49.826;6.740;2023-03-20T05:34:53;100589.81;;;9.98;60.99
74722;BME280;63470;49.826;6.740;2023-03-20T05:37:23;100591.80;;;9.95;61.04
74722;BME280;63470;49.826;6.740;2023-03-20T05:39:53;100586.23;;;9.91;61.06
74722;BME280;63470;49.826;6.740;2023-03-20T05:42:24;100579.52;;;9.86;61.04
74722;BME280;63470;49.826;6.740;2023-03-20T05:44:55;100580.80;;;9.76;61.09
74722;BME280;63470;49.826;6.740;2023-03-20T05:47:30;100580.73;;;9.65;61.21
74722;BME280;63470;49.826;6.740;2023-03-20T05:49:55;100582.92;;;9.57;61.30
74722;BME280;63470;49.826;6.740;2023-03-20T05:52:31;100588.52;;;9.54;61.35
74722;BME280;63470;49.826;6.740;2023-03-20T05:55:01;100595.05;;;9.55;61.33
74722;BME280;63470;49.826;6.740;2023-03-20T05:57:27;100595.66;;;9.60;61.27
74722;BME280;63470;49.826;6.740;2023-03-20T05:59:57;100597.20;;;9.67;61.23
74722;BME280;63470;49.826;6.740;2023-03-20T06:02:28;100598.95;;;9.75;61.17
74722;BME280;63470;49.826;6.740;2023-03-20T06:04:58;100595.20;;;9.81;61.09
74722;BME280;63470;49.826;6.740;2023-03-20T06:07:29;100602.00;;;9.87;61.00
74722;BME280;63470;49.826;6.740;2023-03-20T06:09:59;100608.15;;;9.91;60.95
74722;BME280;63470;49.826;6.740;2023-03-20T06:12:38;100608.23;;;9.91;61.00
74722;BME280;63470;49.826;6.740;2023-03-20T06:15:01;100609.00;;;9.90;61.13
74722;BME280;63470;49.826;6.740;2023-03-20T06:17:36;100613.45;;;9.90;61.22
74722;BME280;63470;49.826;6.740;2023-03-20T06:20:12;100618.45;;;9.90;61.25
74722;BME280;63470;49.826;6.740;2023-03-20T06:22:32;100617.92;;;9.94;61.20
74722;BME280;63470;49.826;6.740;2023-03-20T06:25:04;100624.75;;;9.99;61.13
74722;BME280;63470;49.826;6.740;2023-03-20T06:27:34;100628.73;;;10.04;61.12
74722;BME280;63470;49.826;6.740;2023-03-20T06:30:05;100630.61;;;10.13;61.09
74722;BME280;63470;49.826;6.740;2023-03-20T06:32:35;100632.72;;;10.17;61.05
74722;BME280;63470;49.826;6.740;2023-03-20T06:35:06;100629.72;;;10.22;61.03
74722;BME280;63470;49.826;6.740;2023-03-20T06:37:36;100628.52;;;10.24;61.00
74722;BME280;63470;49.826;6.740;2023-03-20T06:40:09;100629.34;;;10.24;60.97
74722;BME280;63470;49.826;6.740;2023-03-20T06:42:37;100624.53;;;10.18;61.02
74722;BME280;63470;49.826;6.740;2023-03-20T06:45:13;100618.09;;;10.12;61.14
74722;BME280;63470;49.826;6.740;2023-03-20T06:47:38;100616.28;;;10.11;61.16
74722;BME280;63470;49.826;6.740;2023-03-20T06:50:10;100619.80;;;10.12;61.11
74722;BME280;63470;49.826;6.740;2023-03-20T06:52:40;100619.22;;;10.09;61.15
74722;BME280;63470;49.826;6.740;2023-03-20T06:55:10;100619.42;;;10.05;61.14
74722;BME280;63470;49.826;6.740;2023-03-20T06:57:41;100621.72;;;10.04;61.17
74722;BME280;63470;49.826;6.740;2023-03-20T07:00:12;100620.23;;;10.07;61.17
74722;BME280;63470;49.826;6.740;2023-03-20T07:02:42;100622.58;;;10.14;61.12
74722;BME280;63470;49.826;6.740;2023-03-20T07:05:12;100622.62;;;10.22;61.02
74722;BME280;63470;49.826;6.740;2023-03-20T07:07:47;100622.16;;;10.30;60.88
74722;BME280;63470;49.826;6.740;2023-03-20T07:10:17;100621.38;;;10.42;60.80
74722;BME280;63470;49.826;6.740;2023-03-20T07:12:49;100627.78;;;10.54;60.70
74722;BME280;63470;49.826;6.740;2023-03-20T07:15:18;100625.83;;;10.68;60.54
74722;BME280;63470;49.826;6.740;2023-03-20T07:17:50;100624.05;;;10.80;60.40
74722;BME280;63470;49.826;6.740;2023-03-20T07:20:20;100628.64;;;10.97;60.27
74722;BME280;63470;49.826;6.740;2023-03-20T07:22:46;100631.31;;;11.10;60.19
74722;BME280;63470;49.826;6.740;2023-03-20T07:25:15;100635.91;;;11.26;60.13
74722;BME280;63470;49.826;6.740;2023-03-20T07:27:50;100633.17;;;11.47;60.03
74722;BME280;63470;49.826;6.740;2023-03-20T07:30:17;100633.34;;;11.66;59.90
74722;BME280;63470;49.826;6.740;2023-03-20T07:32:48;100634.33;;;11.78;59.80
74722;BME280;63470;49.826;6.740;2023-03-20T07:35:18;100632.20;;;11.89;59.71
74722;BME280;63470;49.826;6.740;2023-03-20T07:37:48;100628.80;;;11.94;59.74
74722;BME280;63470;49.826;6.740;2023-03-20T07:40:19;100636.77;;;11.93;59.74
74722;BME280;63470;49.826;6.740;2023-03-20T07:42:52;100637.96;;;11.85;59.90
74722;BME280;63470;49.826;6.740;2023-03-20T07:45:24;100642.46;;;11.77;59.99
74722;BME280;63470;49.826;6.740;2023-03-20T07:47:51;100652.88;;;11.71;60.11
74722;BME280;63470;49.826;6.740;2023-03-20T07:50:20;100652.19;;;11.66;60.25
74722;BME280;63470;49.826;6.740;2023-03-20T07:52:53;100650.48;;;11.62;60.36
74722;BME280;63470;49.826;6.740;2023-03-20T07:55:25;100654.23;;;11.61;60.47
74722;BME280;63470;49.826;6.740;2023-03-20T07:57:51;100653.07;;;11.61;60.57
74722;BME280;63470;49.826;6.740;2023-03-20T08:00:21;100656.62;;;11.60;60.51
74722;BME280;63470;49.826;6.740;2023-03-20T08:02:52;100652.10;;;11.52;60.52
74722;BME280;63470;49.826;6.740;2023-03-20T08:05:22;100658.40;;;11.43;60.58
74722;BME280;63470;49.826;6.740;2023-03-20T08:07:53;100672.83;;;11.40;60.62
74722;BME280;63470;49.826;6.740;2023-03-20T08:10:24;100672.50;;;11.39;60.60
74722;BME280;63470;49.826;6.740;2023-03-20T08:12:54;100666.66;;;11.43;60.54
74722;BME280;63470;49.826;6.740;2023-03-20T08:15:25;100668.05;;;11.52;60.37
74722;BME280;63470;49.826;6.740;2023-03-20T08:18:03;100676.41;;;11.66;60.20
74722;BME280;63470;49.826;6.740;2023-03-20T08:20:31;100679.36;;;11.81;60.07
74722;BME280;63470;49.826;6.740;2023-03-20T08:23:01;100680.81;;;12.01;59.98
74722;BME280;63470;49.826;6.740;2023-03-20T08:25:28;100680.73;;;12.24;59.91
74722;BME280;63470;49.826;6.740;2023-03-20T08:27:57;100685.95;;;12.53;59.73
74722;BME280;63470;49.826;6.740;2023-03-20T08:30:28;100691.06;;;12.74;59.70
74722;BME280;63470;49.826;6.740;2023-03-20T08:32:58;100689.75;;;12.92;59.48
74722;BME280;63470;49.826;6.740;2023-03-20T08:35:29;100694.45;;;13.01;59.48
74722;BME280;63470;49.826;6.740;2023-03-20T08:38:00;100697.30;;;13.06;59.60
74722;BME280;63470;49.826;6.740;2023-03-20T08:40:30;100696.20;;;13.16;59.61
74722;BME280;63470;49.826;6.740;2023-03-20T08:43:03;100705.75;;;13.23;59.55
74722;BME280;63470;49.826;6.740;2023-03-20T08:45:35;100705.43;;;13.11;59.66
74722;BME280;63470;49.826;6.740;2023-03-20T08:48:00;100707.25;;;12.99;59.84
74722;BME280;63470;49.826;6.740;2023-03-20T08:50:31;100711.77;;;13.01;59.96
74722;BME280;63470;49.826;6.740;2023-03-20T08:53:02;100714.91;;;13.05;60.04
74722;BME280;63470;49.826;6.740;2023-03-20T08:55:31;100713.55;;;13.07;60.08
74722;BME280;63470;49.826;6.740;2023-03-20T08:58:02;100717.16;;;13.16;60.01
74722;BME280;63470;49.826;6.740;2023-03-20T09:00:32;100717.64;;;13.29;59.88
74722;BME280;63470;49.826;6.740;2023-03-20T09:03:03;100721.80;;;13.45;59.76
74722;BME280;63470;49.826;6.740;2023-03-20T09:05:39;100720.89;;;13.50;59.69
74722;BME280;63470;49.826;6.740;2023-03-20T09:08:08;100726.20;;;13.54;59.73
74722;BME280;63470;49.826;6.740;2023-03-20T09:10:35;100729.35;;;13.63;59.68
74722;BME280;63470;49.826;6.740;2023-03-20T09:13:04;100725.20;;;13.70;59.55
74722;BME280;63470;49.826;6.740;2023-03-20T09:15:34;100723.05;;;13.74;59.54
74722;BME280;63470;49.826;6.740;2023-03-20T09:18:05;100724.03;;;13.79;59.51
74722;BME280;63470;49.826;6.740;2023-03-20T09:20:36;100724.17;;;13.76;59.52
74722;BME280;63470;49.826;6.740;2023-03-20T09:23:06;100734.04;;;13.69;59.70
74722;BME280;63470;49.826;6.740;2023-03-20T09:25:37;100732.95;;;13.65;59.80
74722;BME280;63470;49.826;6.740;2023-03-20T09:28:10;100732.55;;;13.56;59.88
74722;BME280;63470;49.826;6.740;2023-03-20T09:30:38;100732.67;;;13.49;59.96
74722;BME280;63470;49.826;6.740;2023-03-20T09:33:14;100731.58;;;13.38;60.07
74722;BME280;63470;49.826;6.740;2023-03-20T09:35:44;100726.23;;;13.40;60.07
74722;BME280;63470;49.826;6.740;2023-03-20T09:38:19;100726.99;;;13.56;59.85
74722;BME280;63470;49.826;6.740;2023-03-20T09:40:58;100717.45;;;13.73;59.63
74722;BME280;63470;49.826;6.740;2023-03-20T09:45:55;100719.60;;;14.07;59.38
74722;BME280;63470;49.826;6.740;2023-03-20T09:48:48;100727.61;;;14.26;59.22
74722;BME280;63470;49.826;6.740;2023-03-20T09:55:48;100718.33;;;14.31;59.14
74722;BME280;63470;49.826;6.740;2023-03-20T09:58:23;100723.48;;;14.30;59.35
74722;BME280;63470;49.826;6.740;2023-03-20T10:00:45;100721.39;;;14.32;59.34
74722;BME280;63470;49.826;6.740;2023-03-20T10:03:21;100720.85;;;14.24;59.41
74722;BME280;63470;49.826;6.740;2023-03-20T10:06:05;100721.31;;;14.22;59.27
74722;BME280;63470;49.826;6.740;2023-03-20T10:08:20;100716.88;;;14.18;59.43
74722;BME280;63470;49.826;6.740;2023-03-20T10:11:03;100713.31;;;14.29;59.54
74722;BME280;63470;49.826;6.740;2023-03-20T10:13:38;100714.08;;;14.48;59.42
74722;BME280;63470;49.826;6.740;2023-03-20T10:16:02;100717.42;;;14.65;59.16
74722;BME280;63470;49.826;6.740;2023-03-20T10:18:23;100724.47;;;14.76;59.17
74722;BME280;63470;49.826;6.740;2023-03-20T10:23:28;100728.30;;;14.92;58.84
74722;BME280;63470;49.826;6.740;2023-03-20T10:25:55;100729.92;;;14.74;59.09
74722;BME280;63470;49.826;6.740;2023-03-20T10:28:31;100732.95;;;14.55;59.34
74722;BME280;63470;49.826;6.740;2023-03-20T10:33:42;100721.67;;;14.38;59.62
74722;BME280;63470;49.826;6.740;2023-03-20T10:38:57;100721.39;;;14.56;59.30
74722;BME280;63470;49.826;6.740;2023-03-20T10:40:49;100725.59;;;14.64;59.25
74722;BME280;63470;49.826;6.740;2023-03-20T10:43:26;100724.41;;;14.72;59.21
74722;BME280;63470;49.826;6.740;2023-03-20T10:45:54;100715.24;;;14.85;59.09
74722;BME280;63470;49.826;6.740;2023-03-20T10:48:39;100713.59;;;14.91;58.93
74722;BME280;63470;49.826;6.740;2023-03-20T10:50:54;100707.16;;;14.89;58.96
74722;BME280;63470;49.826;6.740;2023-03-20T10:53:35;100706.78;;;14.91;58.99
74722;BME280;63470;49.826;6.740;2023-03-20T10:55:57;100698.66;;;14.94;58.90
74722;BME280;63470;49.826;6.740;2023-03-20T10:58:27;100706.16;;;14.89;59.08
74722;BME280;63470;49.826;6.740;2023-03-20T11:00:59;100700.38;;;15.04;59.20
74722;BME280;63470;49.826;6.740;2023-03-20T11:03:31;100696.81;;;15.40;58.88
74722;BME280;63470;49.826;6.740;2023-03-20T11:06:01;100695.97;;;15.41;58.88
74722;BME280;63470;49.826;6.740;2023-03-20T11:08:30;100694.35;;;15.29;59.23
74722;BME280;63470;49.826;6.740;2023-03-20T11:11:03;100689.36;;;15.23;59.32
74722;BME280;63470;49.826;6.740;2023-03-20T11:13:41;100694.38;;;15.13;59.23
74722;BME280;63470;49.826;6.740;2023-03-20T11:16:24;100696.09;;;14.85;59.57
74722;BME280;63470;49.826;6.740;2023-03-20T11:18:33;100700.20;;;14.70;59.81
74722;BME280;63470;49.826;6.740;2023-03-20T11:21:03;100691.59;;;14.52;59.76
74722;BME280;63470;49.826;6.740;2023-03-20T11:23:34;100690.94;;;14.28;60.06
74722;BME280;63470;49.826;6.740;2023-03-20T11:26:05;100688.52;;;14.08;60.22
74722;BME280;63470;49.826;6.740;2023-03-20T11:28:35;100695.81;;;13.98;60.24
74722;BME280;63470;49.826;6.740;2023-03-20T11:31:16;100691.38;;;13.92;60.29
74722;BME280;63470;49.826;6.740;2023-03-20T11:33:35;100696.52;;;13.97;60.10
74722;BME280;63470;49.826;6.740;2023-03-20T11:36:22;100693.84;;;14.05;59.96
74722;BME280;63470;49.826;6.740;2023-03-20T11:38:32;100694.89;;;14.17;59.77
74722;BME280;63470;49.826;6.740;2023-03-20T11:41:17;100690.72;;;14.33;59.57
74722;BME280;63470;49.826;6.740;2023-03-20T11:43:40;100692.00;;;14.45;59.29
74722;BME280;63470;49.826;6.740;2023-03-20T11:46:09;100690.15;;;14.53;59.21
74722;BME280;63470;49.826;6.740;2023-03-20T11:48:40;100694.10;;;14.68;59.08
74722;BME280;63470;49.826;6.740;2023-03-20T11:51:14;100686.08;;;14.79;58.95
74722;BME280;63470;49.826;6.740;2023-03-20T11:53:38;100687.34;;;14.81;58.88
74722;BME280;63470;49.826;6.740;2023-03-20T11:56:19;100678.48;;;14.78;58.94
74722;BME280;63470;49.826;6.740;2023-03-20T11:58:48;100681.98;;;14.77;58.98
74722;BME280;63470;49.826;6.740;2023-03-20T12:01:12;100681.07;;;14.73;58.99
74722;BME280;63470;49.826;6.740;2023-03-20T12:04:00;100682.05;;;14.61;59.13
74722;BME280;63470;49.826;6.740;2023-03-20T12:06:20;100680.54;;;14.46;59.33
74722;BME280;63470;49.826;6.740;2023-03-20T12:08:44;100680.90;;;14.38;59.35
74722;BME280;63470;49.826;6.740;2023-03-20T12:11:40;100679.31;;;14.30;59.43
74722;BME280;63470;49.826;6.740;2023-03-20T12:13:44;100674.18;;;14.18;59.48
74722;BME280;63470;49.826;6.740;2023-03-20T12:16:15;100679.81;;;14.04;59.59
74722;BME280;63470;49.826;6.740;2023-03-20T12:18:49;100667.86;;;13.90;59.71
74722;BME280;63470;49.826;6.740;2023-03-20T12:21:21;100669.03;;;13.83;59.84
74722;BME280;63470;49.826;6.740;2023-03-20T12:26:14;100665.97;;;14.01;59.67
74722;BME280;63470;49.826;6.740;2023-03-20T12:29:01;100663.91;;;14.10;59.46
74722;BME280;63470;49.826;6.740;2023-03-20T12:31:32;100667.47;;;14.11;59.41
74722;BME280;63470;49.826;6.740;2023-03-20T12:36:20;100660.53;;;13.81;59.62
74722;BME280;63470;49.826;6.740;2023-03-20T12:38:47;100658.30;;;13.77;59.73
74722;BME280;63470;49.826;6.740;2023-03-20T12:41:48;100658.85;;;13.74;59.72
74722;BME280;63470;49.826;6.740;2023-03-20T12:44:04;100654.38;;;13.74;59.71
74722;BME280;63470;49.826;6.740;2023-03-20T12:46:29;100655.97;;;13.84;59.59
74722;BME280;63470;49.826;6.740;2023-03-20T12:49:03;100653.80;;;13.92;59.41
74722;BME280;63470;49.826;6.740;2023-03-20T12:51:54;100653.25;;;13.95;59.25
74722;BME280;63470;49.826;6.740;2023-03-20T12:58:58;100638.19;;;13.97;59.08
74722;BME280;63470;49.826;6.740;2023-03-20T13:04:13;100636.16;;;13.91;59.27
74722;BME280;63470;49.826;6.740;2023-03-20T13:06:54;100638.16;;;14.02;59.27
74722;BME280;63470;49.826;6.740;2023-03-20T13:11:38;100627.58;;;14.16;59.19
74722;BME280;63470;49.826;6.740;2023-03-20T13:14:02;100627.02;;;14.22;59.14
74722;BME280;63470;49.826;6.740;2023-03-20T13:19:06;100626.59;;;14.32;58.95
74722;BME280;63470;49.826;6.740;2023-03-20T13:21:32;100631.14;;;14.27;58.94
74722;BME280;63470;49.826;6.740;2023-03-20T13:24:04;100622.78;;;14.23;59.03
74722;BME280;63470;49.826;6.740;2023-03-20T13:26:33;100628.05;;;14.33;59.10
74722;BME280;63470;49.826;6.740;2023-03-20T13:29:27;100615.72;;;14.47;58.92
74722;BME280;63470;49.826;6.740;2023-03-20T13:34:01;100614.25;;;14.43;58.91
74722;BME280;63470;49.826;6.740;2023-03-20T13:36:38;100605.77;;;14.30;59.02
74722;BME280;63470;49.826;6.740;2023-03-20T13:38:56;100605.18;;;14.23;59.21
74722;BME280;63470;49.826;6.740;2023-03-20T13:41:26;100598.94;;;14.18;59.27
74722;BME280;63470;49.826;6.740;2023-03-20T13:44:00;100596.53;;;14.18;59.23
74722;BME280;63470;49.826;6.740;2023-03-20T13:46:25;100598.41;;;14.25;59.21
74722;BME280;63470;49.826;6.740;2023-03-20T13:48:57;100591.64;;;14.48;58.89
74722;BME280;63470;49.826;6.740;2023-03-20T13:51:36;100586.91;;;14.72;58.70
74722;BME280;63470;49.826;6.740;2023-03-20T13:54:09;100588.85;;;15.03;58.41
74722;BME280;63470;49.826;6.740;2023-03-20T13:59:14;100569.73;;;15.40;58.16
74722;BME280;63470;49.826;6.740;2023-03-20T14:03:55;100568.16;;;15.26;58.41
74722;BME280;63470;49.826;6.740;2023-03-20T14:06:42;100563.16;;;15.09;58.66
74722;BME280;63470;49.826;6.740;2023-03-20T14:09:01;100565.19;;;14.89;58.92
74722;BME280;63470;49.826;6.740;2023-03-20T14:11:39;100567.89;;;14.72;59.20
74722;BME280;63470;49.826;6.740;2023-03-20T14:14:05;100570.83;;;14.62;59.28
74722;BME280;63470;49.826;6.740;2023-03-20T14:16:28;100569.09;;;14.48;59.41